sensor_id;sensor_type;location;lat;lon;timestamp;pressure;altitude;pressure_sealevel;temperature;humidity
63097;BME280;49185;42.320;23.198;2023-03-26T00:00:22;94327.78;;;8.49;79.34
63097;BME280;49185;42.320;23.198;2023-03-26T00:02:48;94321.69;;;7.76;82.54
63097;BME280;49185;42.320;23.198;2023-03-26T00:05:13;94321.53;;;7.83;82.78
63097;BME280;49185;42.320;23.198;2023-03-26T00:07:39;94330.69;;;8.48;79.55
63097;BME280;49185;42.320;23.198;2023-03-26T00:10:05;94348.06;;;8.05;81.53
63097;BME280;49185;42.320;23.198;2023-03-26T00:12:30;94346.03;;;8.46;79.37
63097;BME280;49185;42.320;23.198;2023-03-26T00:14:56;94350.19;;;9.03;78.36
63097;BME280;49185;42.320;23.198;2023-03-26T00:17:21;94352.00;;;9.46;76.02
63097;BME280;49185;42.320;23.198;2023-03-26T00:19:47;94359.22;;;9.51;74.41
63097;BME280;49185;42.320;23.198;2023-03-26T00:22:12;94358.16;;;9.52;73.85
63097;BME280;49185;42.320;23.198;2023-03-26T00:24:38;94345.03;;;9.40;74.52
63097;BME280;49185;42.320;23.198;2023-03-26T00:27:04;94352.81;;;10.12;69.61
63097;BME280;49185;42.320;23.198;2023-03-26T00:29:30;94367.72;;;9.80;70.82
63097;BME280;49185;42.320;23.198;2023-03-26T00:31:55;94356.78;;;10.09;68.68
63097;BME280;49185;42.320;23.198;2023-03-26T00:34:21;94363.72;;;10.10;68.13
63097;BME280;49185;42.320;23.198;2023-03-26T00:36:46;94368.78;;;9.79;69.43
63097;BME280;49185;42.320;23.198;2023-03-26T00:39:12;94370.41;;;9.85;69.59
63097;BME280;49185;42.320;23.198;2023-03-26T00:41:37;94368.47;;;9.76;70.72
63097;BME280;49185;42.320;23.198;2023-03-26T00:44:02;94382.78;;;10.02;70.58
63097;BME280;49185;42.320;23.198;2023-03-26T00:46:29;94373.50;;;10.04;69.10
63097;BME280;49185;42.320;23.198;2023-03-26T00:48:55;94366.47;;;9.61;71.79
63097;BME280;49185;42.320;23.198;2023-03-26T00:51:21;94364.22;;;9.47;72.88
63097;BME280;49185;42.320;23.198;2023-03-26T00:53:47;94355.00;;;9.28;74.66
63097;BME280;49185;42.320;23.198;2023-03-26T00:56:13;94359.41;;;9.17;75.34
63097;BME280;49185;42.320;23.198;2023-03-26T00:58:39;94358.03;;;9.15;75.32
63097;BME280;49185;42.320;23.198;2023-03-26T01:01:08;94359.94;;;9.74;72.87
63097;BME280;49185;42.320;23.198;2023-03-26T01:03:35;94362.28;;;9.97;72.37
63097;BME280;49185;42.320;23.198;2023-03-26T01:06:06;94366.31;;;9.73;71.59
63097;BME280;49185;42.320;23.198;2023-03-26T01:08:47;94360.16;;;9.40;72.34
63097;BME280;49185;42.320;23.198;2023-03-26T01:11:20;94352.00;;;9.19;73.82
63097;BME280;49185;42.320;23.198;2023-03-26T01:13:48;94352.22;;;9.18;71.91
63097;BME280;49185;42.320;23.198;2023-03-26T01:16:20;94347.44;;;9.69;67.28
63097;BME280;49185;42.320;23.198;2023-03-26T01:18:47;94351.38;;;9.66;67.61
63097;BME280;49185;42.320;23.198;2023-03-26T01:21:13;94366.41;;;10.53;65.52
63097;BME280;49185;42.320;23.198;2023-03-26T01:23:47;94356.81;;;10.47;66.77
63097;BME280;49185;42.320;23.198;2023-03-26T01:28:41;94356.34;;;10.22;66.96
63097;BME280;49185;42.320;23.198;2023-03-26T01:31:15;94358.31;;;10.32;66.16
63097;BME280;49185;42.320;23.198;2023-03-26T01:39:34;94359.53;;;9.87;67.51
63097;BME280;49185;42.320;23.198;2023-03-26T01:42:09;94360.50;;;9.21;71.41
63097;BME280;49185;42.320;23.198;2023-03-26T01:44:44;94369.63;;;8.86;72.65
63097;BME280;49185;42.320;23.198;2023-03-26T01:47:12;94358.88;;;9.42;70.45
63097;BME280;49185;42.320;23.198;2023-03-26T01:49:38;94360.34;;;9.87;68.92
63097;BME280;49185;42.320;23.198;2023-03-26T01:52:21;94363.06;;;9.65;69.45
63097;BME280;49185;42.320;23.198;2023-03-26T01:54:47;94367.97;;;9.02;71.29
63097;BME280;49185;42.320;23.198;2023-03-26T02:09:04;94379.13;;;9.04;71.79
63097;BME280;49185;42.320;23.198;2023-03-26T02:11:30;94380.09;;;9.42;70.70
63097;BME280;49185;42.320;23.198;2023-03-26T02:13:56;94380.72;;;9.27;69.78
63097;BME280;49185;42.320;23.198;2023-03-26T02:16:22;94381.31;;;9.07;70.73
63097;BME280;49185;42.320;23.198;2023-03-26T02:18:49;94393.00;;;8.67;72.65
63097;BME280;49185;42.320;23.198;2023-03-26T02:21:17;94388.69;;;8.44;73.91
63097;BME280;49185;42.320;23.198;2023-03-26T02:23:43;94400.50;;;8.36;74.49
63097;BME280;49185;42.320;23.198;2023-03-26T02:26:10;94397.78;;;9.09;70.51
63097;BME280;49185;42.320;23.198;2023-03-26T02:28:36;94391.13;;;9.56;68.97
63097;BME280;49185;42.320;23.198;2023-03-26T02:31:02;94396.59;;;9.99;65.27
63097;BME280;49185;42.320;23.198;2023-03-26T02:33:29;94405.75;;;10.13;64.01
63097;BME280;49185;42.320;23.198;2023-03-26T02:35:55;94401.72;;;10.11;63.09
63097;BME280;49185;42.320;23.198;2023-03-26T02:38:21;94400.13;;;10.10;62.55
63097;BME280;49185;42.320;23.198;2023-03-26T02:40:46;94399.28;;;10.04;62.05
63097;BME280;49185;42.320;23.198;2023-03-26T02:43:12;94408.66;;;10.12;61.44
63097;BME280;49185;42.320;23.198;2023-03-26T02:45:37;94412.53;;;9.72;62.68
63097;BME280;49185;42.320;23.198;2023-03-26T02:48:03;94418.72;;;9.28;64.71
63097;BME280;49185;42.320;23.198;2023-03-26T02:50:28;94417.47;;;8.91;67.49
63097;BME280;49185;42.320;23.198;2023-03-26T02:52:53;94422.78;;;8.74;67.72
63097;BME280;49185;42.320;23.198;2023-03-26T02:55:19;94418.81;;;8.55;69.31
63097;BME280;49185;42.320;23.198;2023-03-26T02:57:44;94422.59;;;8.42;68.35
63097;BME280;49185;42.320;23.198;2023-03-26T03:00:10;94420.25;;;8.46;68.46
63097;BME280;49185;42.320;23.198;2023-03-26T03:02:36;94425.66;;;8.51;67.77
63097;BME280;49185;42.320;23.198;2023-03-26T03:05:01;94419.72;;;8.44;70.29
63097;BME280;49185;42.320;23.198;2023-03-26T03:07:27;94438.50;;;8.98;68.84
63097;BME280;49185;42.320;23.198;2023-03-26T03:09:52;94426.03;;;9.43;66.05
63097;BME280;49185;42.320;23.198;2023-03-26T03:12:18;94425.69;;;9.12;67.07
63097;BME280;49185;42.320;23.198;2023-03-26T03:14:43;94431.59;;;9.63;64.42
63097;BME280;49185;42.320;23.198;2023-03-26T03:17:08;94428.72;;;9.70;63.06
63097;BME280;49185;42.320;23.198;2023-03-26T03:19:34;94435.03;;;9.91;61.77
63097;BME280;49185;42.320;23.198;2023-03-26T03:22:00;94445.91;;;9.89;61.38
63097;BME280;49185;42.320;23.198;2023-03-26T03:24:25;94447.97;;;9.82;61.65
63097;BME280;49185;42.320;23.198;2023-03-26T03:26:51;94454.69;;;9.90;61.88
63097;BME280;49185;42.320;23.198;2023-03-26T03:29:16;94469.28;;;9.87;62.36
63097;BME280;49185;42.320;23.198;2023-03-26T03:31:42;94465.47;;;9.78;62.10
63097;BME280;49185;42.320;23.198;2023-03-26T03:34:07;94471.31;;;9.80;62.54
63097;BME280;49185;42.320;23.198;2023-03-26T03:36:32;94473.44;;;9.78;62.65
63097;BME280;49185;42.320;23.198;2023-03-26T03:38:58;94483.03;;;9.79;62.66
63097;BME280;49185;42.320;23.198;2023-03-26T03:41:23;94485.16;;;9.82;62.58
63097;BME280;49185;42.320;23.198;2023-03-26T03:43:49;94477.47;;;9.59;63.66
63097;BME280;49185;42.320;23.198;2023-03-26T03:46:14;94483.50;;;9.54;64.09
63097;BME280;49185;42.320;23.198;2023-03-26T03:48:40;94494.63;;;9.73;63.07
63097;BME280;49185;42.320;23.198;2023-03-26T03:51:05;94487.53;;;9.35;64.25
63097;BME280;49185;42.320;23.198;2023-03-26T03:53:31;94483.94;;;9.24;65.12
63097;BME280;49185;42.320;23.198;2023-03-26T03:55:57;94475.44;;;9.44;63.81
63097;BME280;49185;42.320;23.198;2023-03-26T03:58:24;94478.56;;;9.19;65.03
63097;BME280;49185;42.320;23.198;2023-03-26T04:00:51;94484.75;;;9.24;64.34
63097;BME280;49185;42.320;23.198;2023-03-26T04:03:18;94477.22;;;9.16;65.15
63097;BME280;49185;42.320;23.198;2023-03-26T04:05:45;94484.50;;;8.36;67.56
63097;BME280;49185;42.320;23.198;2023-03-26T04:08:10;94479.22;;;8.70;67.03
63097;BME280;49185;42.320;23.198;2023-03-26T04:10:36;94481.84;;;8.02;69.06
63097;BME280;49185;42.320;23.198;2023-03-26T04:13:01;94482.16;;;7.36;72.18
63097;BME280;49185;42.320;23.198;2023-03-26T04:15:27;94485.38;;;6.98;73.87
63097;BME280;49185;42.320;23.198;2023-03-26T04:17:52;94488.53;;;7.23;73.01
63097;BME280;49185;42.320;23.198;2023-03-26T04:20:18;94488.34;;;7.54;72.17
63097;BME280;49185;42.320;23.198;2023-03-26T04:22:43;94500.63;;;7.31;72.45
63097;BME280;49185;42.320;23.198;2023-03-26T04:25:11;94506.44;;;7.45;71.80
63097;BME280;49185;42.320;23.198;2023-03-26T04:27:38;94513.28;;;6.94;73.96
63097;BME280;49185;42.320;23.198;2023-03-26T04:30:06;94522.94;;;6.76;75.08
63097;BME280;49185;42.320;23.198;2023-03-26T04:32:31;94518.69;;;7.63;71.95
63097;BME280;49185;42.320;23.198;2023-03-26T04:34:57;94524.06;;;7.28;73.22
63097;BME280;49185;42.320;23.198;2023-03-26T04:37:42;94534.63;;;7.39;73.71
63097;BME280;49185;42.320;23.198;2023-03-26T04:40:13;94535.19;;;7.53;72.40
63097;BME280;49185;42.320;23.198;2023-03-26T04:42:39;94535.31;;;7.87;71.77
63097;BME280;49185;42.320;23.198;2023-03-26T04:45:05;94542.22;;;8.17;70.12
63097;BME280;49185;42.320;23.198;2023-03-26T04:47:31;94540.59;;;7.58;72.16
63097;BME280;49185;42.320;23.198;2023-03-26T04:49:56;94545.50;;;7.14;74.92
63097;BME280;49185;42.320;23.198;2023-03-26T04:52:22;94550.19;;;7.36;74.53
63097;BME280;49185;42.320;23.198;2023-03-26T04:54:47;94547.88;;;7.92;71.65
63097;BME280;49185;42.320;23.198;2023-03-26T04:57:31;94551.28;;;7.64;72.57
63097;BME280;49185;42.320;23.198;2023-03-26T04:59:58;94558.03;;;7.83;72.21
63097;BME280;49185;42.320;23.198;2023-03-26T05:02:24;94551.22;;;8.45;70.38
63097;BME280;49185;42.320;23.198;2023-03-26T05:04:49;94559.09;;;9.07;67.68
63097;BME280;49185;42.320;23.198;2023-03-26T05:07:19;94559.34;;;8.72;68.76
63097;BME280;49185;42.320;23.198;2023-03-26T05:09:45;94562.31;;;9.26;67.80
63097;BME280;49185;42.320;23.198;2023-03-26T05:12:10;94560.19;;;10.39;63.05
63097;BME280;49185;42.320;23.198;2023-03-26T05:14:36;94565.53;;;10.66;62.52
63097;BME280;49185;42.320;23.198;2023-03-26T05:17:02;94574.78;;;10.63;61.83
63097;BME280;49185;42.320;23.198;2023-03-26T05:19:28;94584.09;;;9.89;64.62
63097;BME280;49185;42.320;23.198;2023-03-26T05:21:54;94578.41;;;9.59;67.24
63097;BME280;49185;42.320;23.198;2023-03-26T05:24:19;94583.66;;;9.76;67.19
63097;BME280;49185;42.320;23.198;2023-03-26T05:26:44;94579.41;;;9.75;65.58
63097;BME280;49185;42.320;23.198;2023-03-26T05:29:16;94584.00;;;9.40;67.69
63097;BME280;49185;42.320;23.198;2023-03-26T05:31:42;94588.84;;;9.87;66.05
63097;BME280;49185;42.320;23.198;2023-03-26T05:34:08;94581.38;;;10.56;63.63
63097;BME280;49185;42.320;23.198;2023-03-26T05:36:34;94587.16;;;10.25;64.82
63097;BME280;49185;42.320;23.198;2023-03-26T05:38:59;94603.50;;;10.12;65.82
63097;BME280;49185;42.320;23.198;2023-03-26T05:41:24;94605.28;;;10.06;65.18
63097;BME280;49185;42.320;23.198;2023-03-26T05:43:50;94610.06;;;10.04;65.69
63097;BME280;49185;42.320;23.198;2023-03-26T05:46:15;94612.38;;;9.40;67.69
63097;BME280;49185;42.320;23.198;2023-03-26T05:48:41;94611.53;;;9.17;69.19
63097;BME280;49185;42.320;23.198;2023-03-26T05:51:07;94614.16;;;9.34;68.68
63097;BME280;49185;42.320;23.198;2023-03-26T05:53:32;94612.44;;;10.28;62.85
63097;BME280;49185;42.320;23.198;2023-03-26T05:55:58;94604.41;;;10.23;62.23
63097;BME280;49185;42.320;23.198;2023-03-26T05:58:30;94605.47;;;10.00;63.16
63097;BME280;49185;42.320;23.198;2023-03-26T06:01:05;94606.38;;;10.11;61.04
63097;BME280;49185;42.320;23.198;2023-03-26T06:03:31;94609.56;;;10.07;61.96
63097;BME280;49185;42.320;23.198;2023-03-26T06:05:57;94595.28;;;10.14;61.40
63097;BME280;49185;42.320;23.198;2023-03-26T06:08:23;94594.75;;;10.39;60.73
63097;BME280;49185;42.320;23.198;2023-03-26T06:10:49;94593.00;;;10.77;60.24
63097;BME280;49185;42.320;23.198;2023-03-26T06:13:14;94597.09;;;11.65;58.42
63097;BME280;49185;42.320;23.198;2023-03-26T06:15:40;94590.22;;;14.51;49.94
63097;BME280;49185;42.320;23.198;2023-03-26T06:18:06;94584.38;;;15.52;45.60
63097;BME280;49185;42.320;23.198;2023-03-26T06:20:31;94582.22;;;17.27;41.84
63097;BME280;49185;42.320;23.198;2023-03-26T06:22:56;94580.09;;;17.24;40.14
63097;BME280;49185;42.320;23.198;2023-03-26T06:25:22;94576.72;;;16.99;40.48
63097;BME280;49185;42.320;23.198;2023-03-26T06:27:47;94580.19;;;17.19;39.87
63097;BME280;49185;42.320;23.198;2023-03-26T06:30:13;94577.50;;;16.62;40.90
63097;BME280;49185;42.320;23.198;2023-03-26T06:32:39;94575.09;;;16.60;39.55
63097;BME280;49185;42.320;23.198;2023-03-26T06:35:05;94571.53;;;17.69;37.29
63097;BME280;49185;42.320;23.198;2023-03-26T06:37:30;94565.91;;;19.12;35.00
63097;BME280;49185;42.320;23.198;2023-03-26T06:39:56;94563.50;;;18.88;35.00
63097;BME280;49185;42.320;23.198;2023-03-26T06:42:21;94570.50;;;18.75;34.61
63097;BME280;49185;42.320;23.198;2023-03-26T06:44:47;94571.53;;;17.82;36.15
63097;BME280;49185;42.320;23.198;2023-03-26T06:47:12;94574.41;;;17.72;35.88
63097;BME280;49185;42.320;23.198;2023-03-26T06:49:37;94581.63;;;17.30;36.57
63097;BME280;49185;42.320;23.198;2023-03-26T06:52:03;94582.91;;;15.41;38.67
63097;BME280;49185;42.320;23.198;2023-03-26T06:54:29;94587.16;;;14.78;40.69
63097;BME280;49185;42.320;23.198;2023-03-26T06:56:55;94585.28;;;15.43;38.97
63097;BME280;49185;42.320;23.198;2023-03-26T06:59:20;94588.22;;;16.00;38.45
63097;BME280;49185;42.320;23.198;2023-03-26T07:01:46;94588.00;;;15.67;38.62
63097;BME280;49185;42.320;23.198;2023-03-26T07:04:11;94587.22;;;16.39;37.22
63097;BME280;49185;42.320;23.198;2023-03-26T07:06:37;94594.72;;;16.42;37.96
63097;BME280;49185;42.320;23.198;2023-03-26T07:09:02;94595.31;;;17.15;35.68
63097;BME280;49185;42.320;23.198;2023-03-26T07:11:28;94599.78;;;16.43;36.88
63097;BME280;49185;42.320;23.198;2023-03-26T07:13:53;94580.38;;;17.55;35.46
63097;BME280;49185;42.320;23.198;2023-03-26T07:16:19;94588.53;;;17.17;35.13
63097;BME280;49185;42.320;23.198;2023-03-26T07:18:44;94586.25;;;17.57;35.13
63097;BME280;49185;42.320;23.198;2023-03-26T07:21:10;94590.53;;;18.05;34.04
63097;BME280;49185;42.320;23.198;2023-03-26T07:23:36;94589.25;;;18.81;32.98
63097;BME280;49185;42.320;23.198;2023-03-26T07:37:46;94588.88;;;16.35;39.14
63097;BME280;49185;42.320;23.198;2023-03-26T07:45:59;94579.00;;;14.44;41.96
63097;BME280;49185;42.320;23.198;2023-03-26T07:48:26;94582.53;;;15.18;40.69
63097;BME280;49185;42.320;23.198;2023-03-26T07:50:53;94574.13;;;16.75;37.53
63097;BME280;49185;42.320;23.198;2023-03-26T07:53:20;94571.41;;;17.60;35.74
63097;BME280;49185;42.320;23.198;2023-03-26T08:01:07;94568.06;;;18.51;32.93
63097;BME280;49185;42.320;23.198;2023-03-26T08:03:56;94559.63;;;19.48;29.94
63097;BME280;49185;42.320;23.198;2023-03-26T08:09:21;94567.78;;;18.11;31.76
63097;BME280;49185;42.320;23.198;2023-03-26T08:15:14;94576.00;;;18.06;34.41
63097;BME280;49185;42.320;23.198;2023-03-26T08:17:55;94567.47;;;19.90;30.17
63097;BME280;49185;42.320;23.198;2023-03-26T08:20:48;94561.47;;;19.70;29.31
63097;BME280;49185;42.320;23.198;2023-03-26T08:26:06;94554.31;;;19.88;28.67
63097;BME280;49185;42.320;23.198;2023-03-26T08:28:51;94556.59;;;20.13;27.87
63097;BME280;49185;42.320;23.198;2023-03-26T08:31:31;94549.22;;;19.87;27.80
63097;BME280;49185;42.320;23.198;2023-03-26T08:33:58;94556.25;;;18.97;28.82
63097;BME280;49185;42.320;23.198;2023-03-26T08:36:23;94560.97;;;17.58;30.26
63097;BME280;49185;42.320;23.198;2023-03-26T08:38:49;94552.19;;;19.54;30.01
63097;BME280;49185;42.320;23.198;2023-03-26T08:46:55;94554.59;;;18.51;33.15
63097;BME280;49185;42.320;23.198;2023-03-26T08:52:34;94550.94;;;19.06;32.93
63097;BME280;49185;42.320;23.198;2023-03-26T09:00:40;94549.84;;;16.80;35.30
63097;BME280;49185;42.320;23.198;2023-03-26T09:27:39;94519.81;;;18.64;29.90
63097;BME280;49185;42.320;23.198;2023-03-26T09:52:37;94502.09;;;17.10;28.67
63097;BME280;49185;42.320;23.198;2023-03-26T09:58:22;94502.56;;;16.98;28.74
63097;BME280;49185;42.320;23.198;2023-03-26T10:00:57;94489.59;;;16.67;29.68
63097;BME280;49185;42.320;23.198;2023-03-26T10:06:23;94497.19;;;16.79;28.85
63097;BME280;49185;42.320;23.198;2023-03-26T10:09:37;94492.41;;;16.95;27.76
63097;BME280;49185;42.320;23.198;2023-03-26T10:12:21;94484.13;;;17.38;27.69
63097;BME280;49185;42.320;23.198;2023-03-26T10:20:47;94470.13;;;16.76;28.99
63097;BME280;49185;42.320;23.198;2023-03-26T10:23:23;94464.41;;;17.29;27.73
63097;BME280;49185;42.320;23.198;2023-03-26T10:26:35;94465.31;;;17.94;25.93
63097;BME280;49185;42.320;23.198;2023-03-26T10:31:43;94452.97;;;17.93;26.12
63097;BME280;49185;42.320;23.198;2023-03-26T10:39:53;94448.09;;;16.93;23.44
63097;BME280;49185;42.320;23.198;2023-03-26T10:48:22;94431.25;;;17.48;23.45
63097;BME280;49185;42.320;23.198;2023-03-26T10:54:13;94427.53;;;18.35;20.64
63097;BME280;49185;42.320;23.198;2023-03-26T10:56:45;94429.06;;;18.28;22.42
63097;BME280;49185;42.320;23.198;2023-03-26T10:59:13;94421.78;;;18.73;21.79
63097;BME280;49185;42.320;23.198;2023-03-26T11:02:04;94420.69;;;19.28;21.16
63097;BME280;49185;42.320;23.198;2023-03-26T11:04:46;94414.13;;;19.61;19.91
63097;BME280;49185;42.320;23.198;2023-03-26T11:07:18;94415.41;;;19.72;20.09
63097;BME280;49185;42.320;23.198;2023-03-26T11:10:20;94415.50;;;20.07;21.72
63097;BME280;49185;42.320;23.198;2023-03-26T11:13:17;94402.78;;;18.33;22.42
63097;BME280;49185;42.320;23.198;2023-03-26T11:18:44;94411.97;;;18.32;21.80
63097;BME280;49185;42.320;23.198;2023-03-26T11:21:21;94408.97;;;18.79;22.25
63097;BME280;49185;42.320;23.198;2023-03-26T11:26:39;94405.53;;;19.59;19.52
63097;BME280;49185;42.320;23.198;2023-03-26T11:34:37;94388.56;;;19.67;23.17
63097;BME280;49185;42.320;23.198;2023-03-26T11:37:13;94396.16;;;19.56;21.52
63097;BME280;49185;42.320;23.198;2023-03-26T11:39:45;94386.97;;;19.66;21.92
63097;BME280;49185;42.320;23.198;2023-03-26T11:42:13;94392.78;;;20.60;20.31
63097;BME280;49185;42.320;23.198;2023-03-26T11:44:45;94385.63;;;21.68;17.90
63097;BME280;49185;42.320;23.198;2023-03-26T11:47:14;94392.47;;;20.09;21.33
63097;BME280;49185;42.320;23.198;2023-03-26T11:49:44;94388.34;;;19.46;22.07
63097;BME280;49185;42.320;23.198;2023-03-26T11:52:11;94381.03;;;20.39;21.66
63097;BME280;49185;42.320;23.198;2023-03-26T11:54:37;94365.38;;;20.97;20.05
63097;BME280;49185;42.320;23.198;2023-03-26T11:57:06;94374.41;;;19.52;21.92
63097;BME280;49185;42.320;23.198;2023-03-26T11:59:39;94361.94;;;19.25;24.42
63097;BME280;49185;42.320;23.198;2023-03-26T12:04:49;94342.94;;;18.68;26.29
63097;BME280;49185;42.320;23.198;2023-03-26T12:09:58;94338.09;;;18.47;24.53
63097;BME280;49185;42.320;23.198;2023-03-26T12:12:27;94332.09;;;18.50;25.39
63097;BME280;49185;42.320;23.198;2023-03-26T12:14:53;94321.19;;;17.23;24.36
63097;BME280;49185;42.320;23.198;2023-03-26T12:17:30;94315.84;;;17.10;26.38
63097;BME280;49185;42.320;23.198;2023-03-26T12:19:56;94318.88;;;17.44;25.09
63097;BME280;49185;42.320;23.198;2023-03-26T12:22:39;94303.75;;;17.85;26.29
63097;BME280;49185;42.320;23.198;2023-03-26T12:25:17;94301.34;;;18.29;24.87
63097;BME280;49185;42.320;23.198;2023-03-26T12:27:47;94303.44;;;18.32;24.20
63097;BME280;49185;42.320;23.198;2023-03-26T12:30:20;94299.59;;;17.15;24.85
63097;BME280;49185;42.320;23.198;2023-03-26T12:32:47;94295.16;;;17.46;24.24
63097;BME280;49185;42.320;23.198;2023-03-26T12:35:16;94294.47;;;17.77;25.23
63097;BME280;49185;42.320;23.198;2023-03-26T12:37:42;94293.75;;;17.49;25.90
63097;BME280;49185;42.320;23.198;2023-03-26T12:40:35;94289.84;;;16.77;26.33
63097;BME280;49185;42.320;23.198;2023-03-26T12:43:03;94280.09;;;17.09;26.29
63097;BME280;49185;42.320;23.198;2023-03-26T12:45:37;94274.94;;;17.86;26.53
63097;BME280;49185;42.320;23.198;2023-03-26T12:48:03;94283.94;;;18.26;25.12
63097;BME280;49185;42.320;23.198;2023-03-26T13:20:05;94245.53;;;16.61;25.67
63097;BME280;49185;42.320;23.198;2023-03-26T13:23:02;94238.19;;;16.94;28.05
63097;BME280;49185;42.320;23.198;2023-03-26T13:31:35;94233.31;;;16.68;26.92
63097;BME280;49185;42.320;23.198;2023-03-26T13:34:13;94226.34;;;16.40;26.55
63097;BME280;49185;42.320;23.198;2023-03-26T13:36:45;94228.13;;;16.30;27.04
63097;BME280;49185;42.320;23.198;2023-03-26T13:47:47;94224.47;;;16.54;25.37
63097;BME280;49185;42.320;23.198;2023-03-26T13:50:23;94227.25;;;16.35;26.06
63097;BME280;49185;42.320;23.198;2023-03-26T13:53:05;94223.06;;;16.43;26.46
63097;BME280;49185;42.320;23.198;2023-03-26T13:55:43;94220.78;;;16.78;25.02
63097;BME280;49185;42.320;23.198;2023-03-26T13:58:20;94210.84;;;16.64;26.76
63097;BME280;49185;42.320;23.198;2023-03-26T14:00:57;94214.81;;;16.95;25.38
63097;BME280;49185;42.320;23.198;2023-03-26T14:06:49;94201.28;;;16.58;24.98
63097;BME280;49185;42.320;23.198;2023-03-26T14:09:21;94203.66;;;17.01;28.53
63097;BME280;49185;42.320;23.198;2023-03-26T14:15:02;94196.13;;;16.89;24.93
63097;BME280;49185;42.320;23.198;2023-03-26T14:17:42;94188.25;;;16.65;25.09
63097;BME280;49185;42.320;23.198;2023-03-26T14:23:00;94171.84;;;16.95;23.45
63097;BME280;49185;42.320;23.198;2023-03-26T14:25:45;94178.88;;;16.91;23.70
63097;BME280;49185;42.320;23.198;2023-03-26T14:28:30;94177.13;;;16.86;23.33
63097;BME280;49185;42.320;23.198;2023-03-26T14:31:41;94171.81;;;16.81;23.93
63097;BME280;49185;42.320;23.198;2023-03-26T14:40:05;94168.47;;;16.75;23.63
63097;BME280;49185;42.320;23.198;2023-03-26T14:42:57;94165.47;;;16.21;24.46
63097;BME280;49185;42.320;23.198;2023-03-26T14:48:40;94159.03;;;16.36;23.79
63097;BME280;49185;42.320;23.198;2023-03-26T14:54:12;94161.63;;;16.27;26.00
63097;BME280;49185;42.320;23.198;2023-03-26T15:05:31;94156.66;;;16.21;24.94
63097;BME280;49185;42.320;23.198;2023-03-26T15:30:55;94165.88;;;16.28;28.36
63097;BME280;49185;42.320;23.198;2023-03-26T15:33:34;94164.69;;;16.35;26.37
63097;BME280;49185;42.320;23.198;2023-03-26T15:50:00;94151.34;;;16.02;25.66
63097;BME280;49185;42.320;23.198;2023-03-26T15:53:19;94143.69;;;15.48;26.60
63097;BME280;49185;42.320;23.198;2023-03-26T16:04:43;94156.22;;;15.53;27.81
63097;BME280;49185;42.320;23.198;2023-03-26T16:12:33;94158.91;;;15.34;26.20
63097;BME280;49185;42.320;23.198;2023-03-26T16:26:22;94170.47;;;13.46;29.91
63097;BME280;49185;42.320;23.198;2023-03-26T16:33:49;94176.66;;;14.00;30.52
63097;BME280;49185;42.320;23.198;2023-03-26T16:36:25;94181.19;;;13.76;31.18
63097;BME280;49185;42.320;23.198;2023-03-26T16:39:17;94189.94;;;13.52;31.42
63097;BME280;49185;42.320;23.198;2023-03-26T16:44:26;94185.81;;;13.94;31.01
63097;BME280;49185;42.320;23.198;2023-03-26T17:17:25;94217.38;;;11.31;38.17
63097;BME280;49185;42.320;23.198;2023-03-26T17:25:36;94222.97;;;11.14;39.71
63097;BME280;49185;42.320;23.198;2023-03-26T17:33:32;94217.66;;;11.19;40.19
63097;BME280;49185;42.320;23.198;2023-03-26T17:41:02;94228.78;;;10.96;40.01
63097;BME280;49185;42.320;23.198;2023-03-26T17:43:50;94219.41;;;10.78;40.76
63097;BME280;49185;42.320;23.198;2023-03-26T17:51:51;94226.81;;;10.66;41.41
63097;BME280;49185;42.320;23.198;2023-03-26T17:54:23;94225.53;;;10.68;41.59
63097;BME280;49185;42.320;23.198;2023-03-26T17:56:54;94236.09;;;10.53;42.83
63097;BME280;49185;42.320;23.198;2023-03-26T17:59:23;94235.00;;;10.01;44.32
63097;BME280;49185;42.320;23.198;2023-03-26T18:02:14;94238.31;;;9.76;45.52
63097;BME280;49185;42.320;23.198;2023-03-26T18:04:43;94238.84;;;9.45;45.96
63097;BME280;49185;42.320;23.198;2023-03-26T18:17:46;94227.53;;;8.96;47.56
63097;BME280;49185;42.320;23.198;2023-03-26T18:20:23;94223.44;;;9.10;47.35
63097;BME280;49185;42.320;23.198;2023-03-26T18:22:50;94217.50;;;9.30;45.89
63097;BME280;49185;42.320;23.198;2023-03-26T18:25:23;94227.25;;;8.92;46.53
63097;BME280;49185;42.320;23.198;2023-03-26T18:27:49;94230.34;;;8.84;46.01
63097;BME280;49185;42.320;23.198;2023-03-26T18:30:18;94217.03;;;8.79;45.05
63097;BME280;49185;42.320;23.198;2023-03-26T18:33:03;94214.53;;;8.94;44.48
63097;BME280;49185;42.320;23.198;2023-03-26T18:35:41;94214.38;;;9.33;43.88
63097;BME280;49185;42.320;23.198;2023-03-26T18:38:13;94214.63;;;9.04;44.40
63097;BME280;49185;42.320;23.198;2023-03-26T18:40:41;94201.16;;;9.11;44.75
63097;BME280;49185;42.320;23.198;2023-03-26T18:43:14;94201.97;;;9.44;43.74
63097;BME280;49185;42.320;23.198;2023-03-26T18:45:40;94193.59;;;9.25;44.26
63097;BME280;49185;42.320;23.198;2023-03-26T18:50:44;94193.75;;;9.13;45.20
63097;BME280;49185;42.320;23.198;2023-03-26T18:53:29;94190.38;;;9.23;44.63
63097;BME280;49185;42.320;23.198;2023-03-26T18:55:59;94198.56;;;9.16;44.61
63097;BME280;49185;42.320;23.198;2023-03-26T19:00:56;94190.81;;;8.82;44.78
63097;BME280;49185;42.320;23.198;2023-03-26T19:03:22;94187.78;;;9.01;44.23
63097;BME280;49185;42.320;23.198;2023-03-26T19:05:50;94181.50;;;8.80;45.04
63097;BME280;49185;42.320;23.198;2023-03-26T19:08:17;94173.47;;;8.74;44.50
63097;BME280;49185;42.320;23.198;2023-03-26T19:10:44;94171.06;;;8.46;45.96
63097;BME280;49185;42.320;23.198;2023-03-26T19:13:14;94161.69;;;8.16;46.65
63097;BME280;49185;42.320;23.198;2023-03-26T19:15:40;94163.34;;;8.00;47.30
63097;BME280;49185;42.320;23.198;2023-03-26T19:18:08;94158.81;;;7.95;46.97
63097;BME280;49185;42.320;23.198;2023-03-26T19:20:42;94153.78;;;7.77;48.66